sensor_id;sensor_type;location;lat;lon;timestamp;pressure;altitude;pressure_sealevel;temperature;humidity
21300;BME280;10809;49.476;11.016;2023-08-07T00:00:00;97597.94;;;13.10;66.00
21300;BME280;10809;49.476;11.016;2023-08-07T00:02:30;97598.16;;;13.07;66.01
21300;BME280;10809;49.476;11.016;2023-08-07T00:05:01;97597.44;;;13.05;65.92
21300;BME280;10809;49.476;11.016;2023-08-07T00:07:31;97599.22;;;13.04;65.93
21300;BME280;10809;49.476;11.016;2023-08-07T00:10:05;97610.84;;;13.03;66.15
21300;BME280;10809;49.476;11.016;2023-08-07T00:12:36;97605.66;;;13.02;66.15
21300;BME280;10809;49.476;11.016;2023-08-07T00:15:13;97604.06;;;12.99;66.13
21300;BME280;10809;49.476;11.016;2023-08-07T00:17:43;97604.19;;;12.98;66.07
21300;BME280;10809;49.476;11.016;2023-08-07T00:20:23;97604.44;;;12.95;66.16
21300;BME280;10809;49.476;11.016;2023-08-07T00:22:56;97613.34;;;12.94;66.35
21300;BME280;10809;49.476;11.016;2023-08-07T00:25:26;97608.16;;;12.92;66.31
21300;BME280;10809;49.476;11.016;2023-08-07T00:27:57;97624.09;;;12.92;66.27
21300;BME280;10809;49.476;11.016;2023-08-07T00:30:28;97611.78;;;12.91;66.55
21300;BME280;10809;49.476;11.016;2023-08-07T00:32:58;97617.09;;;12.91;66.47
21300;BME280;10809;49.476;11.016;2023-08-07T00:35:29;97618.88;;;12.91;66.54
21300;BME280;10809;49.476;11.016;2023-08-07T00:37:59;97613.69;;;12.89;66.63
21300;BME280;10809;49.476;11.016;2023-08-07T00:40:36;97619.13;;;12.88;66.70
21300;BME280;10809;49.476;11.016;2023-08-07T00:43:07;97626.25;;;12.87;66.49
21300;BME280;10809;49.476;11.016;2023-08-07T00:45:42;97614.03;;;12.85;66.70
21300;BME280;10809;49.476;11.016;2023-08-07T00:48:20;97619.47;;;12.83;66.67
21300;BME280;10809;49.476;11.016;2023-08-07T00:50:51;97616.94;;;12.82;67.36
21300;BME280;10809;49.476;11.016;2023-08-07T00:53:21;97619.72;;;12.80;66.85
21300;BME280;10809;49.476;11.016;2023-08-07T00:55:52;97623.34;;;12.79;66.91
21300;BME280;10809;49.476;11.016;2023-08-07T00:58:23;97623.44;;;12.78;66.75
21300;BME280;10809;49.476;11.016;2023-08-07T01:00:54;97627.03;;;12.77;66.97
21300;BME280;10809;49.476;11.016;2023-08-07T01:03:24;97627.28;;;12.74;67.00
21300;BME280;10809;49.476;11.016;2023-08-07T01:05:55;97635.38;;;12.72;67.00
21300;BME280;10809;49.476;11.016;2023-08-07T01:08:25;97632.81;;;12.71;67.07
21300;BME280;10809;49.476;11.016;2023-08-07T01:16:40;97628.72;;;12.67;67.08
21300;BME280;10809;49.476;11.016;2023-08-07T01:19:23;97635.09;;;12.64;67.18
21300;BME280;10809;49.476;11.016;2023-08-07T01:24:43;97637.03;;;12.62;67.08
21300;BME280;10809;49.476;11.016;2023-08-07T01:35:40;97652.56;;;12.56;67.30
21300;BME280;10809;49.476;11.016;2023-08-07T01:38:15;97646.53;;;12.54;67.44
21300;BME280;10809;49.476;11.016;2023-08-07T01:40:47;97649.19;;;12.54;67.55
21300;BME280;10809;49.476;11.016;2023-08-07T01:43:19;97658.09;;;12.53;67.57
21300;BME280;10809;49.476;11.016;2023-08-07T01:45:51;97659.94;;;12.52;67.63
21300;BME280;10809;49.476;11.016;2023-08-07T01:48:21;97669.69;;;12.52;67.68
21300;BME280;10809;49.476;11.016;2023-08-07T01:50:52;97661.84;;;12.50;67.62
21300;BME280;10809;49.476;11.016;2023-08-07T01:53:23;97660.97;;;12.50;67.58
21300;BME280;10809;49.476;11.016;2023-08-07T01:55:57;97659.28;;;12.49;67.76
21300;BME280;10809;49.476;11.016;2023-08-07T01:58:27;97665.56;;;12.48;67.77
21300;BME280;10809;49.476;11.016;2023-08-07T02:00:58;97677.13;;;12.47;67.83
21300;BME280;10809;49.476;11.016;2023-08-07T02:03:28;97682.44;;;12.47;67.97
21300;BME280;10809;49.476;11.016;2023-08-07T02:05:59;97681.63;;;12.46;67.83
21300;BME280;10809;49.476;11.016;2023-08-07T02:08:29;97694.03;;;12.46;67.77
21300;BME280;10809;49.476;11.016;2023-08-07T02:11:00;97684.38;;;12.45;67.91
21300;BME280;10809;49.476;11.016;2023-08-07T02:13:32;97690.63;;;12.44;68.01
21300;BME280;10809;49.476;11.016;2023-08-07T02:16:03;97682.88;;;12.41;67.96
21300;BME280;10809;49.476;11.016;2023-08-07T02:18:37;97685.53;;;12.41;67.94
21300;BME280;10809;49.476;11.016;2023-08-07T02:21:07;97694.47;;;12.40;67.96
21300;BME280;10809;49.476;11.016;2023-08-07T02:23:39;97686.50;;;12.40;68.05
21300;BME280;10809;49.476;11.016;2023-08-07T02:26:09;97690.09;;;12.39;67.96
21300;BME280;10809;49.476;11.016;2023-08-07T02:28:40;97706.03;;;12.39;67.98
21300;BME280;10809;49.476;11.016;2023-08-07T02:31:10;97706.16;;;12.37;68.23
21300;BME280;10809;49.476;11.016;2023-08-07T02:33:41;97706.16;;;12.37;68.10
21300;BME280;10809;49.476;11.016;2023-08-07T02:36:11;97712.41;;;12.36;68.04
21300;BME280;10809;49.476;11.016;2023-08-07T02:38:42;97709.00;;;12.34;68.08
21300;BME280;10809;49.476;11.016;2023-08-07T02:41:12;97702.84;;;12.34;67.99
21300;BME280;10809;49.476;11.016;2023-08-07T02:43:43;97707.31;;;12.33;68.00
21300;BME280;10809;49.476;11.016;2023-08-07T02:46:13;97719.00;;;12.31;68.12
21300;BME280;10809;49.476;11.016;2023-08-07T02:48:44;97721.66;;;12.31;68.40
21300;BME280;10809;49.476;11.016;2023-08-07T02:51:20;97708.50;;;12.29;68.21
21300;BME280;10809;49.476;11.016;2023-08-07T02:53:51;97723.69;;;12.27;68.11
21300;BME280;10809;49.476;11.016;2023-08-07T02:56:21;97727.41;;;12.25;68.10
21300;BME280;10809;49.476;11.016;2023-08-07T02:58:52;97727.50;;;12.23;68.29
21300;BME280;10809;49.476;11.016;2023-08-07T03:01:23;97732.94;;;12.22;68.39
21300;BME280;10809;49.476;11.016;2023-08-07T03:03:53;97727.75;;;12.20;68.31
21300;BME280;10809;49.476;11.016;2023-08-07T03:06:24;97739.28;;;12.19;68.55
21300;BME280;10809;49.476;11.016;2023-08-07T03:08:55;97734.09;;;12.18;68.39
21300;BME280;10809;49.476;11.016;2023-08-07T03:11:25;97742.06;;;12.18;68.45
21300;BME280;10809;49.476;11.016;2023-08-07T03:13:56;97741.34;;;12.16;68.52
21300;BME280;10809;49.476;11.016;2023-08-07T03:16:26;97747.47;;;12.16;68.60
21300;BME280;10809;49.476;11.016;2023-08-07T03:18:57;97745.88;;;12.14;68.55
21300;BME280;10809;49.476;11.016;2023-08-07T03:21:27;97738.03;;;12.12;68.52
21300;BME280;10809;49.476;11.016;2023-08-07T03:23:58;97739.84;;;12.12;68.60
21300;BME280;10809;49.476;11.016;2023-08-07T03:26:28;97745.16;;;12.12;68.80
21300;BME280;10809;49.476;11.016;2023-08-07T03:28:59;97759.38;;;12.11;68.59
21300;BME280;10809;49.476;11.016;2023-08-07T03:31:30;97754.06;;;12.11;68.57
21300;BME280;10809;49.476;11.016;2023-08-07T03:34:01;97755.88;;;12.10;68.73
21300;BME280;10809;49.476;11.016;2023-08-07T03:36:32;97763.00;;;12.10;68.66
21300;BME280;10809;49.476;11.016;2023-08-07T03:39:11;97764.91;;;12.08;68.70
21300;BME280;10809;49.476;11.016;2023-08-07T03:41:43;97760.56;;;12.07;68.61
21300;BME280;10809;49.476;11.016;2023-08-07T03:44:16;97779.25;;;12.05;69.05
21300;BME280;10809;49.476;11.016;2023-08-07T03:46:46;97770.44;;;12.05;68.67
21300;BME280;10809;49.476;11.016;2023-08-07T03:49:17;97784.66;;;12.04;68.81
21300;BME280;10809;49.476;11.016;2023-08-07T03:51:48;97779.47;;;12.02;68.91
21300;BME280;10809;49.476;11.016;2023-08-07T03:54:18;97789.22;;;12.02;69.24
21300;BME280;10809;49.476;11.016;2023-08-07T03:56:49;97795.47;;;12.01;68.88
21300;BME280;10809;49.476;11.016;2023-08-07T03:59:22;97797.38;;;11.99;68.77
21300;BME280;10809;49.476;11.016;2023-08-07T04:01:53;97801.00;;;11.98;68.85
21300;BME280;10809;49.476;11.016;2023-08-07T04:04:24;97803.75;;;11.96;68.94
21300;BME280;10809;49.476;11.016;2023-08-07T04:06:54;97794.19;;;11.94;68.98
21300;BME280;10809;49.476;11.016;2023-08-07T04:09:25;97807.47;;;11.94;68.99
21300;BME280;10809;49.476;11.016;2023-08-07T04:11:56;97814.59;;;11.93;69.32
21300;BME280;10809;49.476;11.016;2023-08-07T04:14:27;97808.41;;;11.93;69.07
21300;BME280;10809;49.476;11.016;2023-08-07T04:16:57;97813.72;;;11.93;69.15
21300;BME280;10809;49.476;11.016;2023-08-07T04:19:28;97812.88;;;11.92;69.28
21300;BME280;10809;49.476;11.016;2023-08-07T04:21:58;97807.66;;;11.91;68.98
21300;BME280;10809;49.476;11.016;2023-08-07T04:24:29;97810.44;;;11.89;69.07
21300;BME280;10809;49.476;11.016;2023-08-07T04:27:06;97815.72;;;11.89;69.17
21300;BME280;10809;49.476;11.016;2023-08-07T04:29:36;97833.44;;;11.89;69.24
21300;BME280;10809;49.476;11.016;2023-08-07T04:32:07;97817.53;;;11.89;69.15
21300;BME280;10809;49.476;11.016;2023-08-07T04:34:37;97836.09;;;11.89;69.16
21300;BME280;10809;49.476;11.016;2023-08-07T04:37:08;97834.41;;;11.88;69.42
21300;BME280;10809;49.476;11.016;2023-08-07T04:39:38;97839.72;;;11.88;69.26
21300;BME280;10809;49.476;11.016;2023-08-07T04:42:09;97845.88;;;11.88;69.42
21300;BME280;10809;49.476;11.016;2023-08-07T04:44:39;97839.72;;;11.88;69.44
21300;BME280;10809;49.476;11.016;2023-08-07T04:47:10;97847.66;;;11.88;69.23
21300;BME280;10809;49.476;11.016;2023-08-07T04:49:40;97848.63;;;11.87;69.28
21300;BME280;10809;49.476;11.016;2023-08-07T04:52:11;97841.59;;;11.86;69.18
21300;BME280;10809;49.476;11.016;2023-08-07T04:54:41;97854.03;;;11.85;69.38
21300;BME280;10809;49.476;11.016;2023-08-07T04:57:12;97847.88;;;11.85;69.32
21300;BME280;10809;49.476;11.016;2023-08-07T04:59:42;97857.53;;;11.86;69.40
21300;BME280;10809;49.476;11.016;2023-08-07T05:02:13;97854.88;;;11.86;69.45
21300;BME280;10809;49.476;11.016;2023-08-07T05:04:46;97855.84;;;11.85;69.37
21300;BME280;10809;49.476;11.016;2023-08-07T05:07:17;97856.81;;;11.84;69.38
21300;BME280;10809;49.476;11.016;2023-08-07T05:09:47;97862.09;;;11.84;69.43
21300;BME280;10809;49.476;11.016;2023-08-07T05:12:20;97854.16;;;11.84;69.53
21300;BME280;10809;49.476;11.016;2023-08-07T05:14:50;97865.69;;;11.83;69.50
21300;BME280;10809;49.476;11.016;2023-08-07T05:17:22;97855.94;;;11.83;69.52
21300;BME280;10809;49.476;11.016;2023-08-07T05:19:52;97859.56;;;11.82;69.69
21300;BME280;10809;49.476;11.016;2023-08-07T05:22:23;97858.69;;;11.82;69.47
21300;BME280;10809;49.476;11.016;2023-08-07T05:24:53;97865.06;;;11.79;69.59
21300;BME280;10809;49.476;11.016;2023-08-07T05:27:24;97864.22;;;11.79;69.74
21300;BME280;10809;49.476;11.016;2023-08-07T05:29:54;97862.41;;;11.79;69.93
21300;BME280;10809;49.476;11.016;2023-08-07T05:32:24;97858.91;;;11.79;69.74
21300;BME280;10809;49.476;11.016;2023-08-07T05:34:55;97878.34;;;11.79;69.62
21300;BME280;10809;49.476;11.016;2023-08-07T05:37:28;97872.28;;;11.77;69.83
21300;BME280;10809;49.476;11.016;2023-08-07T05:40:02;97877.56;;;11.77;69.88
21300;BME280;10809;49.476;11.016;2023-08-07T05:42:39;97886.50;;;11.76;69.71
21300;BME280;10809;49.476;11.016;2023-08-07T05:45:11;97881.28;;;11.75;69.81
21300;BME280;10809;49.476;11.016;2023-08-07T05:47:41;97877.69;;;11.76;69.55
21300;BME280;10809;49.476;11.016;2023-08-07T05:50:12;97882.22;;;11.74;69.94
21300;BME280;10809;49.476;11.016;2023-08-07T05:52:42;97892.00;;;11.73;69.79
21300;BME280;10809;49.476;11.016;2023-08-07T05:55:13;97890.28;;;11.72;70.00
21300;BME280;10809;49.476;11.016;2023-08-07T05:57:44;97896.34;;;11.74;70.12
21300;BME280;10809;49.476;11.016;2023-08-07T06:00:15;97887.53;;;11.74;69.97
21300;BME280;10809;49.476;11.016;2023-08-07T06:02:48;97899.97;;;11.73;70.14
21300;BME280;10809;49.476;11.016;2023-08-07T06:05:18;97886.72;;;11.73;69.99
21300;BME280;10809;49.476;11.016;2023-08-07T06:07:49;97894.66;;;11.73;70.03
21300;BME280;10809;49.476;11.016;2023-08-07T06:10:19;97897.31;;;11.73;70.17
21300;BME280;10809;49.476;11.016;2023-08-07T06:12:50;97905.16;;;11.75;70.25
21300;BME280;10809;49.476;11.016;2023-08-07T06:15:20;97910.56;;;11.73;69.91
21300;BME280;10809;49.476;11.016;2023-08-07T06:17:51;97913.22;;;11.73;70.12
21300;BME280;10809;49.476;11.016;2023-08-07T06:20:22;97907.91;;;11.73;70.00
21300;BME280;10809;49.476;11.016;2023-08-07T06:22:52;97911.50;;;11.72;69.85
21300;BME280;10809;49.476;11.016;2023-08-07T06:25:23;97910.69;;;11.72;70.34
21300;BME280;10809;49.476;11.016;2023-08-07T06:27:53;97922.13;;;11.72;70.24
21300;BME280;10809;49.476;11.016;2023-08-07T06:30:24;97918.63;;;11.72;70.03
21300;BME280;10809;49.476;11.016;2023-08-07T06:32:54;97917.66;;;11.73;70.18
21300;BME280;10809;49.476;11.016;2023-08-07T06:35:25;97919.47;;;11.72;70.27
21300;BME280;10809;49.476;11.016;2023-08-07T06:37:55;97918.53;;;11.73;70.34
21300;BME280;10809;49.476;11.016;2023-08-07T06:40:26;97922.88;;;11.74;70.19
21300;BME280;10809;49.476;11.016;2023-08-07T06:42:56;97922.88;;;11.74;70.39
21300;BME280;10809;49.476;11.016;2023-08-07T06:45:27;97916.59;;;11.75;70.46
21300;BME280;10809;49.476;11.016;2023-08-07T06:47:57;97930.72;;;11.76;70.53
21300;BME280;10809;49.476;11.016;2023-08-07T06:50:28;97926.19;;;11.78;70.35
21300;BME280;10809;49.476;11.016;2023-08-07T06:52:58;97942.94;;;11.78;70.20
21300;BME280;10809;49.476;11.016;2023-08-07T06:55:32;97933.19;;;11.79;70.41
21300;BME280;10809;49.476;11.016;2023-08-07T06:58:03;97934.03;;;11.79;70.36
21300;BME280;10809;49.476;11.016;2023-08-07T07:00:34;97934.03;;;11.79;70.43
21300;BME280;10809;49.476;11.016;2023-08-07T07:03:05;97935.72;;;11.80;70.57
21300;BME280;10809;49.476;11.016;2023-08-07T07:05:38;97942.81;;;11.80;70.47
21300;BME280;10809;49.476;11.016;2023-08-07T07:08:08;97932.97;;;11.82;70.51
21300;BME280;10809;49.476;11.016;2023-08-07T07:10:39;97938.38;;;11.80;70.35
21300;BME280;10809;49.476;11.016;2023-08-07T07:13:09;97940.94;;;11.82;70.31
21300;BME280;10809;49.476;11.016;2023-08-07T07:15:40;97943.59;;;11.82;70.73
21300;BME280;10809;49.476;11.016;2023-08-07T07:18:11;97939.13;;;11.82;70.75
21300;BME280;10809;49.476;11.016;2023-08-07T07:20:41;97949.66;;;11.84;70.60
21300;BME280;10809;49.476;11.016;2023-08-07T07:23:12;97955.78;;;11.84;70.43
21300;BME280;10809;49.476;11.016;2023-08-07T07:25:43;97963.63;;;11.86;70.58
21300;BME280;10809;49.476;11.016;2023-08-07T07:28:13;97969.81;;;11.86;70.46
21300;BME280;10809;49.476;11.016;2023-08-07T07:30:44;97965.34;;;11.87;70.72
21300;BME280;10809;49.476;11.016;2023-08-07T07:33:14;97974.16;;;11.87;70.65
21300;BME280;10809;49.476;11.016;2023-08-07T07:35:45;97982.00;;;11.89;70.84
21300;BME280;10809;49.476;11.016;2023-08-07T07:38:15;97979.28;;;11.90;70.77
21300;BME280;10809;49.476;11.016;2023-08-07T07:40:46;97980.97;;;11.91;70.85
21300;BME280;10809;49.476;11.016;2023-08-07T07:43:16;97985.22;;;11.94;70.68
21300;BME280;10809;49.476;11.016;2023-08-07T07:45:47;97993.06;;;11.95;70.79
21300;BME280;10809;49.476;11.016;2023-08-07T07:48:18;97992.03;;;11.98;70.87
21300;BME280;10809;49.476;11.016;2023-08-07T07:50:58;97991.19;;;11.97;70.48
21300;BME280;10809;49.476;11.016;2023-08-07T07:53:29;97999.91;;;11.99;70.80
21300;BME280;10809;49.476;11.016;2023-08-07T07:56:02;97996.28;;;12.00;70.67
21300;BME280;10809;49.476;11.016;2023-08-07T07:58:33;98001.59;;;12.00;70.91
21300;BME280;10809;49.476;11.016;2023-08-07T08:01:04;98003.28;;;12.01;70.64
21300;BME280;10809;49.476;11.016;2023-08-07T08:03:34;98011.13;;;12.03;70.61
21300;BME280;10809;49.476;11.016;2023-08-07T08:06:08;98022.63;;;12.03;70.54
21300;BME280;10809;49.476;11.016;2023-08-07T08:08:39;98023.38;;;12.05;70.76
21300;BME280;10809;49.476;11.016;2023-08-07T08:11:09;98019.84;;;12.05;70.69
21300;BME280;10809;49.476;11.016;2023-08-07T08:13:40;98025.94;;;12.07;70.85
21300;BME280;10809;49.476;11.016;2023-08-07T08:16:11;98028.56;;;12.07;70.54
21300;BME280;10809;49.476;11.016;2023-08-07T08:18:42;98028.47;;;12.08;70.46
21300;BME280;10809;49.476;11.016;2023-08-07T08:21:13;98031.22;;;12.07;70.74
21300;BME280;10809;49.476;11.016;2023-08-07T08:23:52;98039.09;;;12.08;70.62
21300;BME280;10809;49.476;11.016;2023-08-07T08:26:23;98037.38;;;12.07;70.60
21300;BME280;10809;49.476;11.016;2023-08-07T08:28:53;98047.88;;;12.09;70.42
21300;BME280;10809;49.476;11.016;2023-08-07T08:31:30;98044.41;;;12.08;70.42
21300;BME280;10809;49.476;11.016;2023-08-07T08:34:00;98051.59;;;12.06;70.49
21300;BME280;10809;49.476;11.016;2023-08-07T08:36:31;98043.53;;;12.08;70.36
21300;BME280;10809;49.476;11.016;2023-08-07T08:39:02;98056.81;;;12.08;70.73
21300;BME280;10809;49.476;11.016;2023-08-07T08:41:32;98063.91;;;12.07;70.47
21300;BME280;10809;49.476;11.016;2023-08-07T08:44:04;98058.59;;;12.07;70.48
21300;BME280;10809;49.476;11.016;2023-08-07T08:46:38;98053.41;;;12.06;70.72
21300;BME280;10809;49.476;11.016;2023-08-07T08:49:15;98073.59;;;12.08;70.66
21300;BME280;10809;49.476;11.016;2023-08-07T08:51:46;98063.81;;;12.09;70.96
21300;BME280;10809;49.476;11.016;2023-08-07T08:54:17;98067.13;;;12.12;71.12
21300;BME280;10809;49.476;11.016;2023-08-07T08:56:48;98076.69;;;12.15;71.17
21300;BME280;10809;49.476;11.016;2023-08-07T08:59:19;98071.16;;;12.18;71.08
21300;BME280;10809;49.476;11.016;2023-08-07T09:01:51;98086.88;;;12.21;70.73
21300;BME280;10809;49.476;11.016;2023-08-07T09:04:23;98084.13;;;12.22;70.49
21300;BME280;10809;49.476;11.016;2023-08-07T09:07:00;98089.44;;;12.22;70.66
21300;BME280;10809;49.476;11.016;2023-08-07T09:09:31;98087.66;;;12.23;70.55
21300;BME280;10809;49.476;11.016;2023-08-07T09:12:02;98079.59;;;12.24;70.50
21300;BME280;10809;49.476;11.016;2023-08-07T09:14:36;98084.03;;;12.24;70.67
21300;BME280;10809;49.476;11.016;2023-08-07T09:17:07;98085.75;;;12.25;70.45
21300;BME280;10809;49.476;11.016;2023-08-07T09:19:38;98091.06;;;12.25;70.66
21300;BME280;10809;49.476;11.016;2023-08-07T09:22:09;98092.75;;;12.26;70.45
21300;BME280;10809;49.476;11.016;2023-08-07T09:24:39;98096.28;;;12.26;70.38
21300;BME280;10809;49.476;11.016;2023-08-07T09:27:10;98103.28;;;12.27;70.60
21300;BME280;10809;49.476;11.016;2023-08-07T09:29:40;98106.78;;;12.28;70.53
21300;BME280;10809;49.476;11.016;2023-08-07T09:32:12;98104.03;;;12.29;70.50
21300;BME280;10809;49.476;11.016;2023-08-07T09:34:43;98110.19;;;12.30;70.62
21300;BME280;10809;49.476;11.016;2023-08-07T09:37:13;98105.63;;;12.32;70.52
21300;BME280;10809;49.476;11.016;2023-08-07T09:39:47;98103.84;;;12.32;70.55
21300;BME280;10809;49.476;11.016;2023-08-07T09:42:17;98112.63;;;12.33;70.68
21300;BME280;10809;49.476;11.016;2023-08-07T09:44:48;98109.78;;;12.36;70.56
21300;BME280;10809;49.476;11.016;2023-08-07T09:47:19;98115.94;;;12.36;70.36
21300;BME280;10809;49.476;11.016;2023-08-07T09:49:54;98115.88;;;12.38;70.79
21300;BME280;10809;49.476;11.016;2023-08-07T09:52:24;98128.94;;;12.41;70.60
21300;BME280;10809;49.476;11.016;2023-08-07T09:54:57;98124.50;;;12.41;70.64
21300;BME280;10809;49.476;11.016;2023-08-07T09:57:27;98132.38;;;12.43;70.48
21300;BME280;10809;49.476;11.016;2023-08-07T10:00:01;98127.81;;;12.45;70.44
21300;BME280;10809;49.476;11.016;2023-08-07T10:02:42;98130.38;;;12.46;70.70
21300;BME280;10809;49.476;11.016;2023-08-07T10:05:13;98137.28;;;12.49;70.84
21300;BME280;10809;49.476;11.016;2023-08-07T10:07:43;98147.69;;;12.52;70.76
21300;BME280;10809;49.476;11.016;2023-08-07T10:10:20;98139.63;;;12.53;70.68
21300;BME280;10809;49.476;11.016;2023-08-07T10:12:52;98141.22;;;12.56;70.61
21300;BME280;10809;49.476;11.016;2023-08-07T10:15:23;98146.44;;;12.57;70.76
21300;BME280;10809;49.476;11.016;2023-08-07T10:17:54;98141.00;;;12.59;70.61
21300;BME280;10809;49.476;11.016;2023-08-07T10:20:27;98139.22;;;12.59;70.56
21300;BME280;10809;49.476;11.016;2023-08-07T10:23:06;98147.94;;;12.61;70.81
21300;BME280;10809;49.476;11.016;2023-08-07T10:25:43;98146.03;;;12.63;70.79
21300;BME280;10809;49.476;11.016;2023-08-07T10:28:17;98153.06;;;12.64;70.53
21300;BME280;10809;49.476;11.016;2023-08-07T10:30:52;98154.75;;;12.65;70.59
21300;BME280;10809;49.476;11.016;2023-08-07T10:33:23;98148.38;;;12.68;70.88
21300;BME280;10809;49.476;11.016;2023-08-07T10:35:57;98161.66;;;12.68;70.57
21300;BME280;10809;49.476;11.016;2023-08-07T10:38:28;98166.75;;;12.71;70.81
21300;BME280;10809;49.476;11.016;2023-08-07T10:41:06;98164.97;;;12.71;70.55
21300;BME280;10809;49.476;11.016;2023-08-07T10:43:38;98166.56;;;12.74;70.55
21300;BME280;10809;49.476;11.016;2023-08-07T10:46:22;98167.31;;;12.76;70.59
21300;BME280;10809;49.476;11.016;2023-08-07T10:48:55;98168.91;;;12.78;70.50
21300;BME280;10809;49.476;11.016;2023-08-07T10:51:30;98164.34;;;12.80;70.53
21300;BME280;10809;49.476;11.016;2023-08-07T10:54:06;98177.53;;;12.82;70.36
21300;BME280;10809;49.476;11.016;2023-08-07T10:56:37;98180.00;;;12.85;70.31
21300;BME280;10809;49.476;11.016;2023-08-07T10:59:10;98169.34;;;12.85;70.37
21300;BME280;10809;49.476;11.016;2023-08-07T11:01:42;98177.22;;;12.86;70.19
21300;BME280;10809;49.476;11.016;2023-08-07T11:04:14;98175.44;;;12.87;70.17
21300;BME280;10809;49.476;11.016;2023-08-07T11:06:47;98176.25;;;12.87;70.15
21300;BME280;10809;49.476;11.016;2023-08-07T11:09:18;98179.69;;;12.89;70.07
21300;BME280;10809;49.476;11.016;2023-08-07T11:11:49;98177.88;;;12.90;70.01
21300;BME280;10809;49.476;11.016;2023-08-07T11:14:19;98173.41;;;12.90;69.97
21300;BME280;10809;49.476;11.016;2023-08-07T11:16:50;98185.84;;;12.90;69.92
21300;BME280;10809;49.476;11.016;2023-08-07T11:19:22;98179.47;;;12.92;70.21
21300;BME280;10809;49.476;11.016;2023-08-07T11:21:53;98187.34;;;12.94;70.03
21300;BME280;10809;49.476;11.016;2023-08-07T11:24:26;98179.25;;;12.95;70.10
21300;BME280;10809;49.476;11.016;2023-08-07T11:26:57;98188.84;;;12.98;70.04
21300;BME280;10809;49.476;11.016;2023-08-07T11:29:29;98193.22;;;12.99;69.99
21300;BME280;10809;49.476;11.016;2023-08-07T11:32:01;98185.13;;;13.00;69.89
21300;BME280;10809;49.476;11.016;2023-08-07T11:34:32;98183.25;;;13.02;69.83
21300;BME280;10809;49.476;11.016;2023-08-07T11:37:03;98183.13;;;13.04;69.96
21300;BME280;10809;49.476;11.016;2023-08-07T11:39:41;98198.00;;;13.07;69.97
21300;BME280;10809;49.476;11.016;2023-08-07T11:42:13;98182.06;;;13.07;69.65
21300;BME280;10809;49.476;11.016;2023-08-07T11:44:44;98198.00;;;13.07;69.61
21300;BME280;10809;49.476;11.016;2023-08-07T11:47:15;98212.06;;;13.09;69.59
21300;BME280;10809;49.476;11.016;2023-08-07T11:49:47;98187.28;;;13.08;69.64
21300;BME280;10809;49.476;11.016;2023-08-07T11:52:21;98191.63;;;13.09;69.68
21300;BME280;10809;49.476;11.016;2023-08-07T11:54:53;98207.56;;;13.09;69.66
21300;BME280;10809;49.476;11.016;2023-08-07T11:57:24;98200.25;;;13.13;69.57
21300;BME280;10809;49.476;11.016;2023-08-07T11:59:55;98209.09;;;13.13;69.66
21300;BME280;10809;49.476;11.016;2023-08-07T12:02:25;98193.03;;;13.15;69.53
21300;BME280;10809;49.476;11.016;2023-08-07T12:04:59;98207.91;;;13.17;69.47
21300;BME280;10809;49.476;11.016;2023-08-07T12:07:30;98210.47;;;13.19;69.58
21300;BME280;10809;49.476;11.016;2023-08-07T12:10:03;98211.22;;;13.21;69.48
21300;BME280;10809;49.476;11.016;2023-08-07T12:12:36;98214.72;;;13.21;69.39
21300;BME280;10809;49.476;11.016;2023-08-07T12:15:08;98218.25;;;13.22;69.43
21300;BME280;10809;49.476;11.016;2023-08-07T12:17:39;98216.34;;;13.24;69.22
21300;BME280;10809;49.476;11.016;2023-08-07T12:20:09;98216.25;;;13.25;69.31
21300;BME280;10809;49.476;11.016;2023-08-07T12:22:41;98215.28;;;13.26;69.23
21300;BME280;10809;49.476;11.016;2023-08-07T12:25:14;98217.81;;;13.28;69.24
21300;BME280;10809;49.476;11.016;2023-08-07T12:27:44;98215.06;;;13.29;69.22
21300;BME280;10809;49.476;11.016;2023-08-07T12:30:17;98217.63;;;13.31;69.24
21300;BME280;10809;49.476;11.016;2023-08-07T12:32:48;98222.06;;;13.30;69.02
21300;BME280;10809;49.476;11.016;2023-08-07T12:35:18;98218.47;;;13.31;69.06
21300;BME280;10809;49.476;11.016;2023-08-07T12:37:52;98229.13;;;13.31;68.94
21300;BME280;10809;49.476;11.016;2023-08-07T12:40:22;98229.22;;;13.30;68.85
21300;BME280;10809;49.476;11.016;2023-08-07T12:42:53;98238.13;;;13.29;68.98
21300;BME280;10809;49.476;11.016;2023-08-07T12:45:24;98227.59;;;13.27;68.97
21300;BME280;10809;49.476;11.016;2023-08-07T12:47:54;98227.69;;;13.26;68.90
21300;BME280;10809;49.476;11.016;2023-08-07T12:50:25;98230.47;;;13.24;69.01
21300;BME280;10809;49.476;11.016;2023-08-07T12:52:56;98239.41;;;13.23;69.13
21300;BME280;10809;49.476;11.016;2023-08-07T12:55:26;98242.06;;;13.23;69.12
21300;BME280;10809;49.476;11.016;2023-08-07T12:57:58;98236.84;;;13.22;69.08
21300;BME280;10809;49.476;11.016;2023-08-07T13:00:29;98237.81;;;13.21;69.23
21300;BME280;10809;49.476;11.016;2023-08-07T13:02:59;98237.81;;;13.21;69.33
21300;BME280;10809;49.476;11.016;2023-08-07T13:05:30;98241.31;;;13.21;69.27
21300;BME280;10809;49.476;11.016;2023-08-07T13:08:01;98245.78;;;13.21;69.22
21300;BME280;10809;49.476;11.016;2023-08-07T13:10:32;98244.06;;;13.20;69.29
21300;BME280;10809;49.476;11.016;2023-08-07T13:13:02;98255.69;;;13.19;69.22
21300;BME280;10809;49.476;11.016;2023-08-07T13:15:35;98259.31;;;13.18;69.32
21300;BME280;10809;49.476;11.016;2023-08-07T13:18:05;98259.50;;;13.15;69.25
21300;BME280;10809;49.476;11.016;2023-08-07T13:20:36;98255.00;;;13.15;69.23
21300;BME280;10809;49.476;11.016;2023-08-07T13:23:06;98252.56;;;13.12;69.34
21300;BME280;10809;49.476;11.016;2023-08-07T13:25:40;98242.91;;;13.11;69.33
21300;BME280;10809;49.476;11.016;2023-08-07T13:28:11;98252.66;;;13.11;69.39